createdAt,value
2022-11-28T00:01:04.044Z,6.89
2022-11-28T00:03:31.072Z,6.90
2022-11-28T00:06:05.984Z,6.94
2022-11-28T00:08:33.319Z,6.94
2022-11-28T00:11:06.554Z,6.97
2022-11-28T00:13:33.237Z,7.02
2022-11-28T00:16:01.981Z,7.03
2022-11-28T00:18:29.223Z,7.07
2022-11-28T00:21:14.966Z,7.08
2022-11-28T00:23:43.981Z,7.09
2022-11-28T00:26:16.938Z,7.12
2022-11-28T00:28:43.645Z,7.15
2022-11-28T00:31:19.440Z,7.21
2022-11-28T00:33:46.071Z,7.22
2022-11-28T00:36:13.824Z,7.22
2022-11-28T00:38:40.885Z,7.23
2022-11-28T00:41:12.903Z,7.25
2022-11-28T00:43:40.041Z,7.24
2022-11-28T00:46:07.366Z,7.20
2022-11-28T00:48:34.775Z,7.17
2022-11-28T00:51:09.924Z,7.15
2022-11-28T00:53:37.253Z,7.14
2022-11-28T00:56:05.127Z,7.15
2022-11-28T00:58:32.836Z,7.14
2022-11-28T01:00:59.436Z,7.13
2022-11-28T01:03:25.887Z,7.15
2022-11-28T01:05:52.175Z,7.14
2022-11-28T01:08:18.556Z,7.14
2022-11-28T01:10:45.895Z,7.20
2022-11-28T01:13:12.276Z,7.24
2022-11-28T01:15:41.410Z,7.29
2022-11-28T01:18:07.901Z,7.29
2022-11-28T01:20:34.830Z,7.35
2022-11-28T01:23:01.261Z,7.40
2022-11-28T01:25:27.740Z,7.44
2022-11-28T01:27:54.107Z,7.46
2022-11-28T01:30:20.463Z,7.50
2022-11-28T01:32:46.797Z,7.51
2022-11-28T01:35:13.175Z,7.55
2022-11-28T01:37:39.464Z,7.59
2022-11-28T01:40:06.577Z,7.62
2022-11-28T01:42:32.943Z,7.63
2022-11-28T01:45:08.700Z,7.64
2022-11-28T01:47:35.739Z,7.66
2022-11-28T01:50:04.180Z,7.69
2022-11-28T01:52:30.759Z,7.74
2022-11-28T01:55:00.754Z,7.74
2022-11-28T01:57:28.104Z,7.75
2022-11-28T02:00:01.882Z,7.75
2022-11-28T02:02:34.555Z,7.82
2022-11-28T02:05:01.414Z,7.83
2022-11-28T02:07:27.982Z,7.83
2022-11-28T02:09:55.167Z,7.84
2022-11-28T02:12:45.282Z,7.80
2022-11-28T02:15:50.928Z,7.88
2022-11-28T02:18:36.502Z,7.85
2022-11-28T02:21:35.769Z,7.84
2022-11-28T02:24:36.338Z,7.80
2022-11-28T02:27:17.733Z,7.87
2022-11-28T02:30:02.376Z,7.83
2022-11-28T02:32:43.402Z,7.80
2022-11-28T02:35:34.566Z,7.84
2022-11-28T02:38:18.754Z,7.84
2022-11-28T02:41:02.482Z,7.83
2022-11-28T02:43:31.704Z,7.85
2022-11-28T02:46:06.283Z,7.82
2022-11-28T02:48:54.142Z,7.85
2022-11-28T02:51:37.514Z,7.86
2022-11-28T02:54:06.461Z,7.85
2022-11-28T02:56:32.881Z,7.88
2022-11-28T02:58:59.167Z,7.82
2022-11-28T03:01:36.969Z,7.82
2022-11-28T03:04:18.217Z,7.87
2022-11-28T03:07:19.157Z,7.85
2022-11-28T03:09:48.433Z,7.82
2022-11-28T03:12:23.822Z,7.80
2022-11-28T03:14:58.260Z,7.82
2022-11-28T03:18:07.919Z,7.80
2022-11-28T03:20:51.599Z,7.79
2022-11-28T03:23:25.428Z,7.77
2022-11-28T03:26:01.789Z,7.78
2022-11-28T03:28:47.605Z,7.78
2022-11-28T03:31:24.466Z,7.78
2022-11-28T03:33:55.753Z,7.80
2022-11-28T03:36:29.195Z,7.81
2022-11-28T03:39:03.446Z,7.79
2022-11-28T03:41:39.271Z,7.79
2022-11-28T03:44:15.502Z,7.80
2022-11-28T03:46:46.439Z,7.78
2022-11-28T03:49:20.116Z,7.79
2022-11-28T03:51:57.451Z,7.80
2022-11-28T03:54:35.579Z,7.78
2022-11-28T03:57:15.969Z,7.75
2022-11-28T03:59:47.192Z,7.77
2022-11-28T04:02:37.118Z,7.77
2022-11-28T04:05:21.167Z,7.76
2022-11-28T04:07:57.974Z,7.75
2022-11-28T04:10:26.939Z,7.76
2022-11-28T04:12:59.383Z,7.74
2022-11-28T04:15:44.784Z,7.79
2022-11-28T04:18:21.075Z,7.76
2022-11-28T04:21:07.257Z,7.72
2022-11-28T04:23:36.502Z,7.75
2022-11-28T04:26:18.204Z,7.76
2022-11-28T04:28:48.458Z,7.75
2022-11-28T04:31:17.822Z,7.76
2022-11-28T04:33:51.150Z,7.71
2022-11-28T04:36:20.161Z,7.74
2022-11-28T04:38:47.729Z,7.70
2022-11-28T04:41:20.259Z,7.69
2022-11-28T04:43:54.143Z,7.71
2022-11-28T04:46:31.006Z,7.73
2022-11-28T04:48:58.426Z,7.69
2022-11-28T04:51:39.355Z,7.66
2022-11-28T04:54:16.742Z,7.69
2022-11-28T04:56:48.088Z,7.71
2022-11-28T04:59:15.257Z,7.67
2022-11-28T05:01:44.896Z,7.69
2022-11-28T05:04:12.246Z,7.70
2022-11-28T05:06:38.715Z,7.68
2022-11-28T05:09:05.517Z,7.68
2022-11-28T05:11:32.049Z,7.70
2022-11-28T05:13:58.447Z,7.70
2022-11-28T05:16:24.776Z,7.71
2022-11-28T05:18:51.390Z,7.73
2022-11-28T05:21:17.846Z,7.69
2022-11-28T05:23:45.299Z,7.67
2022-11-28T05:26:14.681Z,7.66
2022-11-28T05:28:45.705Z,7.68
2022-11-28T05:31:13.138Z,7.65
2022-11-28T05:33:39.803Z,7.64
2022-11-28T05:36:12.970Z,7.66
2022-11-28T05:38:40.676Z,7.67
2022-11-28T05:41:07.740Z,7.66
2022-11-28T05:43:34.042Z,7.65
2022-11-28T05:46:00.551Z,7.63
2022-11-28T05:48:29.302Z,7.69
2022-11-28T05:50:55.631Z,7.66
2022-11-28T05:53:21.955Z,7.65
2022-11-28T05:55:48.302Z,7.67
2022-11-28T05:58:14.840Z,7.69
2022-11-28T06:00:41.302Z,7.65
2022-11-28T06:03:07.634Z,7.69
2022-11-28T06:05:42.791Z,7.68
2022-11-28T06:08:12.481Z,7.68
2022-11-28T06:10:39.307Z,7.76
2022-11-28T06:13:05.640Z,7.71
2022-11-28T06:15:37.597Z,7.70
2022-11-28T06:18:04.999Z,7.69
2022-11-28T06:20:31.399Z,7.69
2022-11-28T06:22:57.686Z,7.71
2022-11-28T06:25:24.068Z,7.71
2022-11-28T06:27:50.612Z,7.71
2022-11-28T06:30:17.177Z,7.68
2022-11-28T06:32:43.634Z,7.70
2022-11-28T06:35:09.970Z,7.71
2022-11-28T06:37:36.562Z,7.74
2022-11-28T06:40:03.748Z,7.75
2022-11-28T06:42:30.206Z,7.73
2022-11-28T06:44:56.553Z,7.74
2022-11-28T06:47:23.018Z,7.74
2022-11-28T06:49:49.750Z,7.73
2022-11-28T06:52:16.197Z,7.78
2022-11-28T06:54:42.845Z,7.81
2022-11-28T06:57:09.262Z,7.79
2022-11-28T06:59:35.649Z,7.80
2022-11-28T07:02:07.227Z,7.77
2022-11-28T07:04:34.264Z,7.75
2022-11-28T07:07:00.644Z,7.75
2022-11-28T07:09:27.183Z,7.74
2022-11-28T07:11:53.511Z,7.73
2022-11-28T07:14:19.919Z,7.71
2022-11-28T07:16:46.713Z,7.74
2022-11-28T07:19:13.079Z,7.76
2022-11-28T07:21:39.463Z,7.72
2022-11-28T07:24:06.354Z,7.73
2022-11-28T07:26:32.873Z,7.74
2022-11-28T07:28:59.253Z,7.74
2022-11-28T07:31:26.932Z,7.74
2022-11-28T07:33:53.864Z,7.74
2022-11-28T07:36:25.497Z,7.76
2022-11-28T07:38:54.535Z,7.80
2022-11-28T07:41:26.524Z,7.82
2022-11-28T07:43:58.450Z,7.82
2022-11-28T07:46:26.453Z,7.82
2022-11-28T07:48:53.039Z,7.82
2022-11-28T07:51:22.705Z,7.85
2022-11-28T07:53:49.611Z,7.85
2022-11-28T07:56:21.102Z,7.87
2022-11-28T07:58:48.178Z,7.87
2022-11-28T08:01:26.242Z,7.89
2022-11-28T08:03:52.972Z,7.87
2022-11-28T08:06:22.527Z,7.87
2022-11-28T08:08:49.498Z,7.92
2022-11-28T08:11:17.606Z,7.86
2022-11-28T08:13:44.774Z,7.87
2022-11-28T08:16:23.488Z,7.86
2022-11-28T08:18:51.308Z,7.86
2022-11-28T08:21:20.774Z,7.86
2022-11-28T08:23:47.619Z,7.89
2022-11-28T08:26:18.422Z,7.89
2022-11-28T08:28:45.250Z,7.89
2022-11-28T08:31:16.651Z,7.94
2022-11-28T08:33:44.575Z,7.90
2022-11-28T08:36:13.458Z,7.93
2022-11-28T08:38:41.214Z,7.94
2022-11-28T08:41:10.538Z,7.97
2022-11-28T08:43:38.073Z,7.97
2022-11-28T08:46:06.645Z,7.97
2022-11-28T08:48:35.027Z,8.03
2022-11-28T08:51:01.571Z,7.99
2022-11-28T08:53:27.913Z,8.05
2022-11-28T08:55:54.380Z,8.05
2022-11-28T08:58:20.768Z,8.07
2022-11-28T09:00:47.113Z,8.08
2022-11-28T09:03:15.865Z,8.11
2022-11-28T09:05:43.687Z,8.15
2022-11-28T09:08:11.794Z,8.12
2022-11-28T09:10:39.279Z,8.12
2022-11-28T09:13:06.358Z,8.10
2022-11-28T09:15:33.554Z,8.10
2022-11-28T09:18:00.217Z,8.11
2022-11-28T09:20:26.866Z,8.11
2022-11-28T09:22:53.147Z,8.10
2022-11-28T09:25:19.426Z,8.14
2022-11-28T09:27:45.744Z,8.14
2022-11-28T09:30:12.459Z,8.14
2022-11-28T09:32:38.759Z,8.17
2022-11-28T09:35:05.588Z,8.22
2022-11-28T09:37:32.011Z,8.23
2022-11-28T09:40:12.617Z,8.22
2022-11-28T09:42:42.635Z,8.22
2022-11-28T09:45:22.868Z,8.27
2022-11-28T09:47:52.418Z,8.31
2022-11-28T09:50:25.129Z,8.33
2022-11-28T09:53:03.476Z,8.39
2022-11-28T09:55:47.081Z,8.38
2022-11-28T09:58:35.709Z,8.43
2022-11-28T10:01:50.445Z,8.48
2022-11-28T10:04:22.623Z,8.49
2022-11-28T10:07:22.743Z,8.45
2022-11-28T10:09:57.754Z,8.51
2022-11-28T10:12:58.904Z,8.48
2022-11-28T10:15:59.641Z,8.48
2022-11-28T10:18:38.181Z,8.45
2022-11-28T10:21:16.799Z,8.48
2022-11-28T10:23:45.136Z,8.49
2022-11-28T10:26:29.744Z,8.55
2022-11-28T10:28:59.724Z,8.56
2022-11-28T10:31:36.803Z,8.59
2022-11-28T10:34:18.382Z,8.58
2022-11-28T10:36:44.698Z,8.63
2022-11-28T10:39:12.895Z,8.61
2022-11-28T10:41:47.739Z,8.62
2022-11-28T10:44:35.079Z,8.70
2022-11-28T10:47:12.007Z,8.77
2022-11-28T10:50:07.069Z,8.75
2022-11-28T10:52:39.972Z,8.81
2022-11-28T10:55:21.394Z,8.82
2022-11-28T10:58:03.976Z,8.80
2022-11-28T11:00:30.719Z,8.81
2022-11-28T11:03:00.251Z,8.89
2022-11-28T11:05:32.763Z,8.89
2022-11-28T11:08:23.976Z,8.84
2022-11-28T11:11:05.457Z,8.93
2022-11-28T11:13:34.607Z,8.95
2022-11-28T11:16:05.861Z,8.96
2022-11-28T11:18:57.667Z,8.92
2022-11-28T11:21:26.879Z,8.97
2022-11-28T11:24:15.809Z,8.99
2022-11-28T11:26:45.951Z,8.98
2022-11-28T11:29:34.319Z,8.99
2022-11-28T11:32:01.479Z,9.03
2022-11-28T11:34:35.307Z,9.06
2022-11-28T11:37:39.133Z,9.08
2022-11-28T11:40:25.174Z,9.13
2022-11-28T11:42:54.926Z,9.14
2022-11-28T11:45:27.141Z,9.20
2022-11-28T11:47:53.537Z,9.20
2022-11-28T11:50:23.294Z,9.24
2022-11-28T11:53:14.627Z,9.32
2022-11-28T11:55:49.584Z,9.30
2022-11-28T11:58:23.563Z,9.30
2022-11-28T12:00:52.577Z,9.43
2022-11-28T12:03:26.959Z,9.41
2022-11-28T12:06:13.642Z,9.43
2022-11-28T12:08:49.897Z,9.46
2022-11-28T12:11:26.454Z,9.39
2022-11-28T12:13:53.062Z,9.42
2022-11-28T12:16:38.168Z,9.49
2022-11-28T12:19:32.048Z,9.48
2022-11-28T12:22:31.681Z,9.48
2022-11-28T12:25:23.103Z,9.50
2022-11-28T12:28:05.281Z,9.55
2022-11-28T12:30:44.903Z,9.51
2022-11-28T12:33:33.816Z,9.49
2022-11-28T12:36:15.628Z,9.54
2022-11-28T12:39:00.052Z,9.58
2022-11-28T12:41:38.611Z,9.52
2022-11-28T12:44:17.187Z,9.53
2022-11-28T12:46:46.497Z,9.57
2022-11-28T12:49:32.001Z,9.59
2022-11-28T12:52:22.803Z,9.50
2022-11-28T12:55:00.065Z,9.59
2022-11-28T12:57:38.199Z,9.59
2022-11-28T13:00:14.434Z,9.64
2022-11-28T13:03:03.887Z,9.60
2022-11-28T13:06:17.921Z,9.59
2022-11-28T13:09:02.244Z,9.60
2022-11-28T13:11:49.853Z,9.67
2022-11-28T13:14:29.587Z,9.62
2022-11-28T13:17:11.807Z,9.62
2022-11-28T13:19:47.367Z,9.67
2022-11-28T13:22:19.317Z,9.66
2022-11-28T13:25:35.188Z,9.71
2022-11-28T13:28:07.185Z,9.78
2022-11-28T13:30:44.256Z,9.82
2022-11-28T13:33:31.625Z,9.80
2022-11-28T13:36:02.180Z,9.78
2022-11-28T13:39:11.718Z,9.75
2022-11-28T13:42:28.328Z,9.78
2022-11-28T13:44:53.466Z,9.77
2022-11-28T13:47:22.806Z,9.76
2022-11-28T13:49:49.590Z,9.75
2022-11-28T13:52:19.036Z,9.83
2022-11-28T13:54:52.003Z,9.76
2022-11-28T13:57:36.259Z,9.72
2022-11-28T14:00:21.154Z,9.69
2022-11-28T14:02:52.536Z,9.67
2022-11-28T14:05:33.794Z,9.69
2022-11-28T14:08:01.949Z,9.70
2022-11-28T14:10:28.381Z,9.75
2022-11-28T14:13:33.896Z,9.78
2022-11-28T14:16:03.335Z,9.77
2022-11-28T14:18:58.019Z,9.79
2022-11-28T14:21:56.265Z,9.80
2022-11-28T14:24:41.194Z,9.82
2022-11-28T14:27:14.977Z,9.79
2022-11-28T14:29:41.793Z,9.78
2022-11-28T14:32:32.110Z,9.77
2022-11-28T14:34:58.931Z,9.78
2022-11-28T14:37:27.921Z,9.80
2022-11-28T14:39:56.082Z,9.84
2022-11-28T14:42:58.118Z,9.80
2022-11-28T14:45:41.968Z,9.78
2022-11-28T14:48:17.247Z,9.74
2022-11-28T14:50:55.970Z,9.74
2022-11-28T14:53:43.596Z,9.71
2022-11-28T14:56:28.559Z,9.70
2022-11-28T14:59:01.486Z,9.69
2022-11-28T15:02:02.754Z,9.69
2022-11-28T15:04:47.718Z,9.68
2022-11-28T15:07:50.624Z,9.65
2022-11-28T15:10:50.015Z,9.63
2022-11-28T15:13:28.436Z,9.63
2022-11-28T15:15:54.941Z,9.58
2022-11-28T15:18:24.415Z,9.58
2022-11-28T15:20:56.393Z,9.60
2022-11-28T15:23:31.976Z,9.58
2022-11-28T15:26:00.233Z,9.59
2022-11-28T15:28:28.359Z,9.60
2022-11-28T15:30:57.818Z,9.61
2022-11-28T15:33:25.896Z,9.61
2022-11-28T15:35:59.396Z,9.61
2022-11-28T15:38:27.429Z,9.59
2022-11-28T15:40:57.880Z,9.59
2022-11-28T15:43:25.196Z,9.59
2022-11-28T15:45:59.133Z,9.57
2022-11-28T15:48:26.734Z,9.57
2022-11-28T15:50:53.230Z,9.56
2022-11-28T15:53:21.061Z,9.55
2022-11-28T15:55:47.979Z,9.54
2022-11-28T15:58:20.420Z,9.55
2022-11-28T16:01:01.170Z,9.51
2022-11-28T16:03:32.235Z,9.50
2022-11-28T16:05:59.539Z,9.48
2022-11-28T16:08:35.100Z,9.44
2022-11-28T16:11:05.301Z,9.40
2022-11-28T16:13:33.289Z,9.37
2022-11-28T16:16:01.699Z,9.32
2022-11-28T16:18:29.023Z,9.23
2022-11-28T16:21:01.578Z,9.20
2022-11-28T16:23:36.080Z,9.23
2022-11-28T16:26:08.077Z,9.21
2022-11-28T16:28:36.767Z,9.23
2022-11-28T16:31:11.512Z,9.22
2022-11-28T16:33:43.229Z,9.21
2022-11-28T16:36:17.786Z,9.21
2022-11-28T16:38:44.969Z,9.21
2022-11-28T16:41:20.400Z,9.18
2022-11-28T16:43:52.273Z,9.16
2022-11-28T16:46:24.591Z,9.16
2022-11-28T16:48:57.252Z,9.17
2022-11-28T16:51:42.523Z,9.20
2022-11-28T16:54:27.706Z,9.21
2022-11-28T16:57:08.443Z,9.22
2022-11-28T16:59:34.873Z,9.22
2022-11-28T17:02:02.084Z,9.21
2022-11-28T17:04:30.797Z,9.26
2022-11-28T17:06:59.274Z,9.27
2022-11-28T17:09:25.668Z,9.29
2022-11-28T17:12:14.826Z,9.32
2022-11-28T17:14:41.210Z,9.34
2022-11-28T17:17:15.208Z,9.35
2022-11-28T17:19:42.302Z,9.37
2022-11-28T17:22:13.427Z,9.33
2022-11-28T17:24:40.068Z,9.31
2022-11-28T17:27:06.380Z,9.29
2022-11-28T17:29:32.729Z,9.23
2022-11-28T17:31:59.464Z,9.18
2022-11-28T17:34:30.924Z,9.15
2022-11-28T17:37:01.578Z,9.12
2022-11-28T17:39:28.402Z,9.07
2022-11-28T17:41:57.601Z,9.06
2022-11-28T17:44:29.166Z,9.06
2022-11-28T17:46:57.593Z,8.98
2022-11-28T17:49:24.574Z,8.94
2022-11-28T17:51:51.817Z,8.89
2022-11-28T17:54:20.085Z,8.84
2022-11-28T17:56:50.579Z,8.77
2022-11-28T17:59:19.193Z,8.70
2022-11-28T18:01:46.060Z,8.70
2022-11-28T18:04:12.471Z,8.67
2022-11-28T18:06:39.088Z,8.60
2022-11-28T18:09:11.691Z,8.56
2022-11-28T18:11:38.831Z,8.52
2022-11-28T18:14:05.348Z,8.40
2022-11-28T18:16:31.682Z,8.39
2022-11-28T18:18:58.185Z,8.31
2022-11-28T18:21:24.568Z,8.28
2022-11-28T18:23:52.015Z,8.24
2022-11-28T18:26:22.076Z,8.26
2022-11-28T18:28:48.597Z,8.22
2022-11-28T18:31:19.047Z,8.27
2022-11-28T18:33:46.057Z,8.23
2022-11-28T18:36:18.227Z,8.21
2022-11-28T18:38:44.794Z,8.22
2022-11-28T18:41:12.190Z,8.25
2022-11-28T18:43:38.718Z,8.24
2022-11-28T18:46:10.828Z,8.19
2022-11-28T18:48:39.124Z,8.20
2022-11-28T18:51:11.635Z,8.14
2022-11-28T18:53:38.635Z,8.10
2022-11-28T18:56:05.698Z,8.04
2022-11-28T18:58:37.387Z,8.00
2022-11-28T19:01:14.861Z,7.99
2022-11-28T19:03:42.639Z,8.01
2022-11-28T19:06:12.089Z,7.95
2022-11-28T19:08:38.933Z,7.94
2022-11-28T19:11:07.466Z,8.00
2022-11-28T19:13:33.819Z,8.03
2022-11-28T19:16:05.911Z,8.07
2022-11-28T19:18:32.691Z,8.08
2022-11-28T19:20:59.126Z,8.12
2022-11-28T19:23:25.560Z,8.14
2022-11-28T19:25:51.895Z,8.15
2022-11-28T19:28:19.228Z,8.17
2022-11-28T19:30:45.556Z,8.18
2022-11-28T19:33:11.851Z,8.20
2022-11-28T19:35:38.371Z,8.27
2022-11-28T19:38:04.809Z,8.32
2022-11-28T19:40:32.736Z,8.41
2022-11-28T19:42:59.088Z,8.48
2022-11-28T19:45:25.403Z,8.61
2022-11-28T19:47:51.929Z,8.64
2022-11-28T19:50:18.527Z,8.69
2022-11-28T19:52:44.947Z,8.78
2022-11-28T19:55:11.333Z,8.82
2022-11-28T19:57:38.489Z,8.84
2022-11-28T20:00:06.217Z,8.90
2022-11-28T20:02:32.810Z,8.89
2022-11-28T20:04:59.272Z,8.92
2022-11-28T20:07:27.323Z,8.85
2022-11-28T20:09:53.732Z,8.85
2022-11-28T20:12:20.057Z,8.85
2022-11-28T20:14:46.442Z,8.87
2022-11-28T20:17:12.965Z,8.84
2022-11-28T20:19:39.332Z,8.82
2022-11-28T20:22:05.609Z,8.83
2022-11-28T20:24:32.180Z,8.80
2022-11-28T20:26:58.620Z,8.81
2022-11-28T20:29:25.043Z,8.78
2022-11-28T20:31:51.604Z,8.79
2022-11-28T20:34:18.414Z,8.78
2022-11-28T20:36:45.633Z,8.77
2022-11-28T20:39:12.689Z,8.76
2022-11-28T20:41:39.145Z,8.70
2022-11-28T20:44:05.633Z,8.71
2022-11-28T20:46:33.074Z,8.75
2022-11-28T20:49:01.691Z,8.77
2022-11-28T20:51:29.614Z,8.73
2022-11-28T20:53:57.687Z,8.66
2022-11-28T20:56:28.375Z,8.57
2022-11-28T20:58:54.601Z,8.47
2022-11-28T21:01:24.361Z,8.46
2022-11-28T21:03:51.741Z,8.49
2022-11-28T21:06:18.801Z,8.48
2022-11-28T21:08:45.132Z,8.53
2022-11-28T21:11:25.542Z,8.49
2022-11-28T21:14:00.789Z,8.55
2022-11-28T21:16:29.302Z,8.55
2022-11-28T21:18:56.980Z,8.62
2022-11-28T21:21:26.343Z,8.61
2022-11-28T21:23:56.227Z,8.62
2022-11-28T21:26:29.948Z,8.58
2022-11-28T21:29:01.770Z,8.55
2022-11-28T21:31:31.590Z,8.54
2022-11-28T21:33:59.200Z,8.56
2022-11-28T21:36:27.229Z,8.58
2022-11-28T21:38:56.040Z,8.56
2022-11-28T21:41:23.775Z,8.59
2022-11-28T21:43:50.184Z,8.62
2022-11-28T21:46:16.583Z,8.59
2022-11-28T21:48:42.898Z,8.57
2022-11-28T21:51:16.024Z,8.55
2022-11-28T21:53:42.363Z,8.55
2022-11-28T21:56:09.585Z,8.56
2022-11-28T21:58:35.900Z,8.58
2022-11-28T22:01:05.232Z,8.59
2022-11-28T22:03:31.970Z,8.59
2022-11-28T22:06:12.784Z,8.58
2022-11-28T22:08:39.153Z,8.58
2022-11-28T22:11:06.585Z,8.60
2022-11-28T22:13:32.958Z,8.60
2022-11-28T22:15:59.447Z,8.58
2022-11-28T22:18:28.189Z,8.57
2022-11-28T22:21:22.380Z,8.59
2022-11-28T22:23:51.148Z,8.60
2022-11-28T22:26:18.591Z,8.62
2022-11-28T22:28:50.418Z,8.61
2022-11-28T22:31:19.748Z,8.60
2022-11-28T22:33:46.306Z,8.60
2022-11-28T22:36:15.516Z,8.65
2022-11-28T22:38:43.091Z,8.66
2022-11-28T22:41:12.017Z,8.65
2022-11-28T22:43:38.534Z,8.65
2022-11-28T22:46:05.757Z,8.64
2022-11-28T22:48:33.366Z,8.68
2022-11-28T22:50:59.864Z,8.66
2022-11-28T22:53:26.186Z,8.64
2022-11-28T22:55:52.535Z,8.64
2022-11-28T22:58:18.870Z,8.63
2022-11-28T23:00:45.202Z,8.61
2022-11-28T23:03:11.966Z,8.66
2022-11-28T23:05:38.770Z,8.65
2022-11-28T23:08:05.310Z,8.65
2022-11-28T23:10:31.720Z,8.63
2022-11-28T23:12:58.012Z,8.61
2022-11-28T23:15:24.303Z,8.60
2022-11-28T23:17:50.605Z,8.62
2022-11-28T23:20:16.940Z,8.60
2022-11-28T23:22:43.383Z,8.61
2022-11-28T23:25:09.910Z,8.62
2022-11-28T23:27:36.246Z,8.63
2022-11-28T23:30:02.823Z,8.61
2022-11-28T23:32:29.303Z,8.59
2022-11-28T23:34:55.695Z,8.58
2022-11-28T23:37:22.016Z,8.58
2022-11-28T23:39:48.349Z,8.60
2022-11-28T23:42:14.687Z,8.60
2022-11-28T23:44:41.191Z,8.60
2022-11-28T23:47:07.650Z,8.62
2022-11-28T23:49:33.963Z,8.60
2022-11-28T23:52:00.279Z,8.60
2022-11-28T23:54:26.545Z,8.60
2022-11-28T23:56:52.863Z,8.60
2022-11-28T23:59:19.196Z,8.57
